41XA weather

Saber Heliport
Spring Branch, Texas, United States

Public forecast

Using degrees Fahrenheit for public forecast. Weather courtesy of forecast.io.

METAR (pilot weather report)

Closest report is Boerne Stage Field, 13.7 nm (25.4 km) WSW. Retrieved 2019/07/19 14:35 UTC (0 seconds ago):

K5C1 191435Z AUTO 17013G17KT 10SM OVC018 26/21 A3005 RMK AO1

TAF (pilot weather forecast)

Closest forecast is San Antonio International Airport, 17.9 nm (33.1 km) S. Retrieved 2019/07/19 12:36 UTC (2 hours ago):

TAF KSAT 191134Z 1912/2018 17010KT P6SM BKN010 FM191400 16013G23KT P6SM SCT025 FM192100 14014KT P6SM FEW050 SCT250 FM200400 18011KT P6SM FEW250